createdAt,value
2019-01-10T00:00:43.952Z,30.70
2019-01-10T00:03:18.505Z,30.70
2019-01-10T00:05:53.001Z,30.70
2019-01-10T00:08:27.623Z,30.70
2019-01-10T00:11:02.461Z,30.70
2019-01-10T00:13:36.935Z,30.70
2019-01-10T00:16:11.616Z,30.70
2019-01-10T00:18:46.503Z,30.60
2019-01-10T00:21:21.231Z,30.70
2019-01-10T00:23:56.999Z,30.70
2019-01-10T00:26:31.757Z,30.70
2019-01-10T00:29:05.923Z,30.60
2019-01-10T00:31:40.559Z,30.70
2019-01-10T00:34:14.751Z,30.70
2019-01-10T00:36:49.921Z,30.60
2019-01-10T00:39:24.817Z,30.70
2019-01-10T00:41:59.157Z,30.70
2019-01-10T00:44:35.109Z,30.70
2019-01-10T00:47:10.476Z,30.70
2019-01-10T00:49:45.204Z,30.70
2019-01-10T00:52:19.837Z,30.70
2019-01-10T00:54:54.270Z,30.70
2019-01-10T00:57:28.844Z,30.70
2019-01-10T01:00:03.891Z,30.70
2019-01-10T01:02:38.370Z,30.70
2019-01-10T01:05:14.793Z,30.70
2019-01-10T01:07:49.081Z,30.60
2019-01-10T01:10:25.345Z,30.70
2019-01-10T01:13:00.160Z,30.70
2019-01-10T01:15:35.115Z,30.70
2019-01-10T01:18:09.642Z,30.70
2019-01-10T01:20:44.249Z,30.70
2019-01-10T01:23:18.480Z,30.70
2019-01-10T01:25:53.074Z,30.70
2019-01-10T01:28:27.733Z,30.70
2019-01-10T01:31:01.974Z,30.80
2019-01-10T01:33:36.413Z,30.80
2019-01-10T01:36:10.785Z,30.80
2019-01-10T01:38:47.175Z,30.90
2019-01-10T01:41:22.193Z,30.90
2019-01-10T01:43:56.867Z,30.90
2019-01-10T01:46:31.210Z,30.90
2019-01-10T01:49:05.990Z,31.00
2019-01-10T01:51:40.769Z,31.00
2019-01-10T01:54:15.084Z,31.00
2019-01-10T01:56:50.309Z,31.10
2019-01-10T01:59:24.247Z,31.10
2019-01-10T02:01:58.893Z,31.10
2019-01-10T02:04:33.313Z,31.10
2019-01-10T02:07:07.867Z,31.10
2019-01-10T02:09:42.504Z,31.20
2019-01-10T02:12:16.627Z,31.20
2019-01-10T02:14:51.575Z,31.20
2019-01-10T02:17:25.687Z,31.20
2019-01-10T02:20:01.144Z,31.20
2019-01-10T02:22:38.481Z,31.20
2019-01-10T02:25:12.313Z,31.30
2019-01-10T02:27:47.005Z,31.30
2019-01-10T02:30:23.713Z,31.30
2019-01-10T02:32:59.504Z,31.30
2019-01-10T02:35:33.607Z,31.30
2019-01-10T02:38:08.526Z,31.30
2019-01-10T02:40:43.368Z,31.40
2019-01-10T02:43:26.130Z,31.40
2019-01-10T02:45:53.797Z,31.40
2019-01-10T02:48:28.331Z,31.40
2019-01-10T02:51:03.262Z,31.40
2019-01-10T02:53:37.704Z,31.40
2019-01-10T02:56:11.833Z,31.40
2019-01-10T02:58:46.551Z,31.50
2019-01-10T03:01:20.801Z,31.50
2019-01-10T03:03:55.910Z,31.50
2019-01-10T03:06:33.434Z,31.50
2019-01-10T03:09:10.089Z,31.50
2019-01-10T03:11:44.666Z,31.50
2019-01-10T03:14:19.533Z,31.50
2019-01-10T03:16:53.760Z,31.60
2019-01-10T03:19:28.859Z,31.60
2019-01-10T03:22:02.923Z,31.60
2019-01-10T03:24:37.681Z,31.60
2019-01-10T03:27:12.310Z,31.70
2019-01-10T03:29:47.579Z,31.70
2019-01-10T03:32:21.810Z,31.70
2019-01-10T03:34:56.326Z,31.70
2019-01-10T03:37:30.632Z,31.70
2019-01-10T03:40:05.110Z,31.80
2019-01-10T03:42:39.585Z,31.70
2019-01-10T03:45:16.268Z,31.80
2019-01-10T03:47:50.936Z,31.80
2019-01-10T03:50:25.622Z,31.80
2019-01-10T03:53:00.781Z,31.80
2019-01-10T03:55:35.442Z,31.80
2019-01-10T03:58:10.231Z,31.80
2019-01-10T04:00:44.711Z,31.80
2019-01-10T04:03:19.714Z,31.90
2019-01-10T04:05:54.362Z,32.00
2019-01-10T04:08:29.587Z,31.90
2019-01-10T04:11:04.197Z,32.00
2019-01-10T04:13:39.212Z,32.00
2019-01-10T04:16:13.876Z,32.00
2019-01-10T04:18:48.678Z,32.00
2019-01-10T04:21:23.735Z,32.00
2019-01-10T04:23:58.223Z,32.00
2019-01-10T04:26:32.928Z,32.10
2019-01-10T04:29:07.677Z,32.10
2019-01-10T04:31:42.334Z,32.10
2019-01-10T04:34:16.992Z,32.10
2019-01-10T04:36:51.323Z,32.10
2019-01-10T04:39:26.109Z,32.10
2019-01-10T04:42:01.703Z,32.10
2019-01-10T04:44:36.321Z,32.20
2019-01-10T04:47:11.421Z,32.20
2019-01-10T04:49:46.030Z,32.20
2019-01-10T04:52:20.813Z,32.20
2019-01-10T04:54:55.971Z,32.20
2019-01-10T04:57:30.931Z,32.30
2019-01-10T05:00:05.596Z,32.30
2019-01-10T05:02:40.184Z,32.30
2019-01-10T05:05:14.863Z,32.30
2019-01-10T05:07:49.418Z,32.30
2019-01-10T05:10:24.311Z,32.30
2019-01-10T05:12:59.069Z,32.30
2019-01-10T05:15:33.510Z,32.40
2019-01-10T05:18:08.356Z,32.40
2019-01-10T05:20:43.556Z,32.40
2019-01-10T05:23:18.013Z,32.40
2019-01-10T05:25:52.887Z,32.40
2019-01-10T05:28:27.417Z,32.50
2019-01-10T05:31:05.002Z,32.50
2019-01-10T05:33:39.226Z,32.50
2019-01-10T05:36:14.375Z,32.60
2019-01-10T05:38:49.233Z,32.60
2019-01-10T05:41:24.424Z,32.60
2019-01-10T05:43:58.780Z,32.60
2019-01-10T05:46:33.424Z,32.70
2019-01-10T05:49:08.082Z,32.60
2019-01-10T05:51:42.908Z,32.70
2019-01-10T05:54:17.950Z,32.70
2019-01-10T05:56:52.933Z,32.70
2019-01-10T05:59:27.319Z,32.70
2019-01-10T06:02:02.141Z,32.80
2019-01-10T06:04:37.043Z,32.80
2019-01-10T06:07:11.719Z,32.80
2019-01-10T06:09:47.114Z,32.80
2019-01-10T06:12:21.779Z,32.80
2019-01-10T06:14:56.692Z,32.80
2019-01-10T06:17:31.336Z,32.80
2019-01-10T06:20:06.270Z,32.80
2019-01-10T06:22:40.546Z,32.80
2019-01-10T06:25:15.832Z,32.80
2019-01-10T06:27:50.227Z,32.90
2019-01-10T06:30:26.386Z,32.80
2019-01-10T06:33:01.525Z,32.90
2019-01-10T06:35:36.366Z,32.90
2019-01-10T06:38:11.471Z,32.90
2019-01-10T06:40:46.162Z,32.90
2019-01-10T06:43:20.844Z,32.90
2019-01-10T06:45:55.602Z,32.90
2019-01-10T06:48:29.932Z,33.00
2019-01-10T06:51:04.407Z,33.00
2019-01-10T06:53:38.598Z,33.00
2019-01-10T06:56:13.822Z,33.00
2019-01-10T06:58:50.384Z,33.00
2019-01-10T07:01:25.236Z,33.00
2019-01-10T07:03:59.818Z,33.00
2019-01-10T07:06:34.541Z,33.00
2019-01-10T07:09:10.851Z,33.00
2019-01-10T07:11:45.680Z,33.10
2019-01-10T07:14:20.308Z,33.10
2019-01-10T07:16:54.793Z,33.10
2019-01-10T07:19:52.011Z,33.10
2019-01-10T07:22:27.027Z,33.10
2019-01-10T07:25:01.928Z,33.10
2019-01-10T07:27:36.395Z,33.10
2019-01-10T07:30:12.174Z,33.10
2019-01-10T07:32:46.347Z,33.10
2019-01-10T07:35:21.592Z,33.20
2019-01-10T07:37:57.896Z,33.20
2019-01-10T07:40:33.941Z,33.20
2019-01-10T07:43:08.469Z,33.20
2019-01-10T07:45:43.292Z,33.20
2019-01-10T07:48:18.040Z,33.20
2019-01-10T07:50:53.117Z,33.20
2019-01-10T07:53:28.034Z,33.20
2019-01-10T07:56:02.420Z,33.20
2019-01-10T07:58:36.598Z,33.30
2019-01-10T08:01:11.480Z,33.30
2019-01-10T08:03:45.642Z,33.30
2019-01-10T08:06:20.586Z,33.30
2019-01-10T08:08:54.990Z,33.30
2019-01-10T08:11:29.279Z,33.30
2019-01-10T08:14:04.293Z,33.30
2019-01-10T08:16:38.779Z,33.30
2019-01-10T08:19:13.645Z,33.30
2019-01-10T08:21:47.615Z,33.30
2019-01-10T08:24:22.101Z,33.30
2019-01-10T08:26:56.571Z,33.40
2019-01-10T08:29:31.127Z,33.40
2019-01-10T08:32:05.530Z,33.40
2019-01-10T08:34:40.795Z,33.40
2019-01-10T08:37:15.081Z,33.40
2019-01-10T08:39:50.041Z,33.40
2019-01-10T08:42:24.406Z,33.40
2019-01-10T08:44:59.516Z,33.40
2019-01-10T08:47:33.704Z,33.40
2019-01-10T08:50:08.871Z,33.40
2019-01-10T08:52:43.386Z,33.40
2019-01-10T08:55:18.324Z,33.40
2019-01-10T08:57:52.967Z,33.40
2019-01-10T09:00:28.758Z,33.40
2019-01-10T09:03:03.764Z,33.40
2019-01-10T09:05:38.486Z,33.40
2019-01-10T09:08:13.354Z,33.40
2019-01-10T09:10:48.063Z,33.40
2019-01-10T09:13:22.948Z,33.40
2019-01-10T09:15:57.729Z,33.40
2019-01-10T09:18:32.254Z,33.40
2019-01-10T09:21:06.622Z,33.40
2019-01-10T09:23:41.309Z,33.40
2019-01-10T09:26:16.277Z,33.40
2019-01-10T09:28:50.865Z,33.40
2019-01-10T09:31:25.638Z,33.40
2019-01-10T09:33:59.898Z,33.40
2019-01-10T09:36:35.050Z,33.30
2019-01-10T09:39:11.198Z,33.40
2019-01-10T09:41:45.809Z,33.40
2019-01-10T09:44:20.361Z,33.40
2019-01-10T09:46:55.724Z,33.40
2019-01-10T09:49:29.808Z,33.40
2019-01-10T09:52:04.781Z,33.40
2019-01-10T09:54:39.276Z,33.30
2019-01-10T09:57:14.501Z,33.40
2019-01-10T09:59:50.283Z,33.40
2019-01-10T10:02:24.938Z,33.40
2019-01-10T10:05:00.831Z,33.40
2019-01-10T10:07:35.171Z,33.40
2019-01-10T10:10:11.633Z,33.30
2019-01-10T10:12:46.343Z,33.40
2019-01-10T10:15:21.743Z,33.30
2019-01-10T10:17:56.338Z,33.40
2019-01-10T10:20:31.214Z,33.30
2019-01-10T10:23:05.861Z,33.30
2019-01-10T10:25:40.563Z,33.30
2019-01-10T10:28:16.232Z,33.30
2019-01-10T10:30:50.403Z,33.30
2019-01-10T10:33:25.477Z,33.30
2019-01-10T10:36:00.036Z,33.30
2019-01-10T10:38:34.549Z,33.30
2019-01-10T10:41:08.821Z,33.30
2019-01-10T10:43:44.128Z,33.30
2019-01-10T10:46:18.812Z,33.30
2019-01-10T10:48:53.409Z,33.30
2019-01-10T10:51:27.856Z,33.30
2019-01-10T10:54:02.173Z,33.30
2019-01-10T10:56:36.560Z,33.30
2019-01-10T10:59:11.086Z,33.30
2019-01-10T11:01:45.935Z,33.30
2019-01-10T11:04:20.363Z,33.30
2019-01-10T11:06:55.433Z,33.30
2019-01-10T11:09:30.063Z,33.20
2019-01-10T11:12:07.898Z,33.20
2019-01-10T11:14:42.088Z,33.20
2019-01-10T11:17:17.189Z,33.30
2019-01-10T11:19:51.830Z,33.20
2019-01-10T11:22:26.283Z,33.20
2019-01-10T11:25:00.950Z,33.20
2019-01-10T11:27:35.431Z,33.20
2019-01-10T11:30:11.026Z,33.20
2019-01-10T11:32:45.020Z,33.20
2019-01-10T11:35:19.913Z,33.20
2019-01-10T11:37:53.879Z,33.20
2019-01-10T11:40:28.900Z,33.20
2019-01-10T11:43:03.515Z,33.20
2019-01-10T11:45:37.981Z,33.20
2019-01-10T11:48:12.939Z,33.20
2019-01-10T11:50:47.474Z,33.10
2019-01-10T11:53:22.260Z,33.10
2019-01-10T11:55:56.904Z,33.20
2019-01-10T11:58:31.273Z,33.20
2019-01-10T12:01:05.796Z,33.10
2019-01-10T12:03:40.726Z,33.10
2019-01-10T12:06:15.396Z,33.10
2019-01-10T12:08:50.556Z,33.10
2019-01-10T12:11:25.513Z,33.10
2019-01-10T12:14:00.294Z,33.10
2019-01-10T12:16:35.207Z,33.00
2019-01-10T12:19:10.155Z,33.00
2019-01-10T12:21:44.857Z,33.10
2019-01-10T12:24:19.801Z,33.00
2019-01-10T12:26:55.732Z,33.00
2019-01-10T12:29:36.067Z,33.00
2019-01-10T12:32:06.528Z,33.00
2019-01-10T12:34:41.105Z,33.00
2019-01-10T12:37:15.827Z,33.00
2019-01-10T12:39:50.363Z,33.00
2019-01-10T12:42:25.297Z,33.00
2019-01-10T12:45:00.270Z,33.00
2019-01-10T12:47:35.388Z,33.00
2019-01-10T12:50:11.875Z,33.00
2019-01-10T12:52:47.135Z,33.00
2019-01-10T12:55:21.521Z,33.00
2019-01-10T12:57:56.297Z,33.00
2019-01-10T13:00:30.902Z,33.00
2019-01-10T13:03:05.523Z,32.90
2019-01-10T13:05:40.180Z,32.90
2019-01-10T13:08:14.788Z,32.90
2019-01-10T13:10:49.707Z,32.90
2019-01-10T13:13:24.174Z,32.90
2019-01-10T13:15:58.855Z,32.90
2019-01-10T13:18:33.470Z,32.90
2019-01-10T13:21:09.733Z,32.90
2019-01-10T13:23:45.510Z,32.90
2019-01-10T13:26:22.540Z,32.90
2019-01-10T13:28:57.029Z,32.90
2019-01-10T13:31:31.980Z,32.80
2019-01-10T13:34:06.868Z,32.90
2019-01-10T13:36:41.382Z,32.80
2019-01-10T13:39:16.607Z,32.80
2019-01-10T13:41:51.177Z,32.80
2019-01-10T13:44:26.009Z,32.80
2019-01-10T13:47:18.500Z,32.80
2019-01-10T13:49:52.931Z,32.80
2019-01-10T13:52:28.060Z,32.80
2019-01-10T13:55:02.790Z,32.80
2019-01-10T13:57:37.900Z,32.80
2019-01-10T14:00:27.644Z,32.80
2019-01-10T14:03:02.139Z,32.80
2019-01-10T14:05:36.817Z,32.80
2019-01-10T14:08:11.772Z,32.80
2019-01-10T14:10:46.866Z,32.80
2019-01-10T14:13:21.688Z,32.80
2019-01-10T14:15:57.165Z,32.80
2019-01-10T14:18:32.455Z,32.80
2019-01-10T14:21:06.962Z,32.80
2019-01-10T14:23:42.377Z,32.80
2019-01-10T14:26:17.357Z,32.80
2019-01-10T14:28:52.196Z,32.80
2019-01-10T14:31:27.604Z,32.70
2019-01-10T14:34:02.669Z,32.70
2019-01-10T14:36:37.833Z,32.80
2019-01-10T14:39:13.411Z,32.80
2019-01-10T14:42:03.858Z,32.70
2019-01-10T14:44:38.291Z,32.70
2019-01-10T14:47:13.711Z,32.70
2019-01-10T14:49:52.594Z,32.60
2019-01-10T14:52:27.133Z,32.60
2019-01-10T14:55:02.139Z,32.60
2019-01-10T14:57:39.849Z,32.60
2019-01-10T15:00:18.420Z,32.60
2019-01-10T15:02:53.123Z,32.60
2019-01-10T15:05:33.993Z,32.60
2019-01-10T15:08:03.993Z,32.60
2019-01-10T15:10:38.522Z,32.60
2019-01-10T15:13:12.946Z,32.50
2019-01-10T15:15:47.465Z,32.50
2019-01-10T15:18:21.923Z,32.50
2019-01-10T15:20:57.130Z,32.50
2019-01-10T15:23:31.738Z,32.50
2019-01-10T15:26:07.246Z,32.50
2019-01-10T15:28:42.794Z,32.50
2019-01-10T15:31:17.726Z,32.40
2019-01-10T15:33:52.377Z,32.40
2019-01-10T15:36:26.973Z,32.40
2019-01-10T15:39:01.498Z,32.40
2019-01-10T15:41:37.877Z,32.40
2019-01-10T15:44:13.022Z,32.40
2019-01-10T15:46:47.454Z,32.40
2019-01-10T15:49:22.118Z,32.40
2019-01-10T15:51:56.335Z,32.30
2019-01-10T15:54:31.437Z,32.30
2019-01-10T15:57:05.988Z,32.30
2019-01-10T15:59:40.927Z,32.30
2019-01-10T16:02:15.602Z,32.30
2019-01-10T16:04:50.875Z,32.30
2019-01-10T16:07:25.378Z,32.30
2019-01-10T16:10:00.231Z,32.30
2019-01-10T16:12:34.888Z,32.30
2019-01-10T16:15:10.645Z,32.30
2019-01-10T16:17:45.441Z,32.30
2019-01-10T16:20:20.131Z,32.30
2019-01-10T16:22:54.617Z,32.20
2019-01-10T16:25:29.540Z,32.20
2019-01-10T16:28:04.315Z,32.20
2019-01-10T16:30:39.293Z,32.20
2019-01-10T16:33:14.061Z,32.20
2019-01-10T16:35:49.830Z,32.20
2019-01-10T16:38:24.421Z,32.10
2019-01-10T16:40:59.385Z,32.10
2019-01-10T16:43:33.961Z,32.20
2019-01-10T16:46:08.612Z,32.10
2019-01-10T16:48:43.483Z,32.10
2019-01-10T16:51:18.215Z,32.10
2019-01-10T16:53:53.024Z,32.10
2019-01-10T16:56:27.731Z,32.10
2019-01-10T16:59:02.477Z,32.10
2019-01-10T17:01:37.253Z,32.00
2019-01-10T17:04:12.197Z,32.10
2019-01-10T17:06:46.633Z,32.00
2019-01-10T17:09:21.743Z,32.00
2019-01-10T17:11:56.147Z,32.00
2019-01-10T17:14:31.325Z,32.00
2019-01-10T17:17:06.115Z,32.00
2019-01-10T17:19:41.127Z,32.00
2019-01-10T17:22:16.893Z,32.00
2019-01-10T17:24:51.727Z,32.00
2019-01-10T17:27:26.390Z,32.00
2019-01-10T17:30:00.802Z,31.90
2019-01-10T17:32:35.782Z,32.00
2019-01-10T17:35:12.848Z,31.90
2019-01-10T17:37:47.702Z,32.00
2019-01-10T17:40:23.342Z,31.90
2019-01-10T17:42:58.085Z,31.90
2019-01-10T17:45:35.031Z,31.90
2019-01-10T17:48:11.659Z,31.90
2019-01-10T17:50:46.727Z,31.90
2019-01-10T17:53:21.641Z,31.90
2019-01-10T17:55:57.165Z,31.90
2019-01-10T17:58:31.924Z,31.90
2019-01-10T18:01:06.647Z,31.80
2019-01-10T18:03:41.598Z,31.90
2019-01-10T18:06:16.025Z,31.80
2019-01-10T18:08:51.147Z,31.80
2019-01-10T18:11:25.570Z,31.80
2019-01-10T18:14:00.149Z,31.80
2019-01-10T18:16:35.251Z,31.80
2019-01-10T18:19:09.517Z,31.80
2019-01-10T18:21:44.658Z,31.80
2019-01-10T18:24:19.075Z,31.80
2019-01-10T18:26:55.364Z,31.80
2019-01-10T18:29:33.007Z,31.80
2019-01-10T18:32:06.698Z,31.80
2019-01-10T18:34:43.336Z,31.80
2019-01-10T18:37:18.426Z,31.80
2019-01-10T18:39:53.269Z,31.80
2019-01-10T18:42:28.017Z,31.80
2019-01-10T18:45:02.964Z,31.80
2019-01-10T18:47:37.698Z,31.70
2019-01-10T18:50:15.605Z,31.70
2019-01-10T18:52:50.607Z,31.70
2019-01-10T18:55:25.362Z,31.70
2019-01-10T18:58:00.187Z,31.70
2019-01-10T19:00:35.550Z,31.70
2019-01-10T19:03:10.421Z,31.70
2019-01-10T19:05:45.014Z,31.70
2019-01-10T19:08:19.943Z,31.70
2019-01-10T19:10:54.673Z,31.70
2019-01-10T19:13:29.318Z,31.70
2019-01-10T19:16:04.945Z,31.70
2019-01-10T19:18:39.825Z,31.70
2019-01-10T19:21:13.932Z,31.70
2019-01-10T19:23:48.985Z,31.70
2019-01-10T19:26:23.567Z,31.60
2019-01-10T19:28:58.339Z,31.60
2019-01-10T19:31:32.526Z,31.60
2019-01-10T19:34:07.600Z,31.60
2019-01-10T19:36:42.020Z,31.60
2019-01-10T19:39:17.074Z,31.60
2019-01-10T19:41:52.312Z,31.60
2019-01-10T19:44:27.203Z,31.60
2019-01-10T19:47:01.986Z,31.50
2019-01-10T19:49:36.662Z,31.50
2019-01-10T19:52:11.613Z,31.50
2019-01-10T19:54:45.990Z,31.50
2019-01-10T19:57:20.829Z,31.50
2019-01-10T19:59:55.544Z,31.50
2019-01-10T20:02:30.481Z,31.50
2019-01-10T20:05:05.164Z,31.50
2019-01-10T20:07:39.881Z,31.50
2019-01-10T20:10:15.902Z,31.50
2019-01-10T20:12:50.829Z,31.50
2019-01-10T20:15:25.323Z,31.50
2019-01-10T20:18:00.499Z,31.50
2019-01-10T20:20:43.259Z,31.50
2019-01-10T20:23:26.817Z,31.50
2019-01-10T20:26:01.390Z,31.50
2019-01-10T20:28:36.056Z,31.50
2019-01-10T20:31:10.905Z,31.40
2019-01-10T20:33:45.651Z,31.40
2019-01-10T20:36:19.765Z,31.40
2019-01-10T20:38:54.312Z,31.40
2019-01-10T20:41:28.882Z,31.40
2019-01-10T20:44:03.751Z,31.40
2019-01-10T20:46:38.419Z,31.40
2019-01-10T20:49:13.070Z,31.40
2019-01-10T20:51:47.559Z,31.40
2019-01-10T20:54:23.374Z,31.40
2019-01-10T20:56:58.062Z,31.40
2019-01-10T20:59:32.484Z,31.40
2019-01-10T21:02:06.649Z,31.40
2019-01-10T21:04:41.216Z,31.40
2019-01-10T21:07:15.548Z,31.40
2019-01-10T21:09:50.862Z,31.40
2019-01-10T21:12:25.457Z,31.40
2019-01-10T21:14:59.831Z,31.40
2019-01-10T21:17:35.015Z,31.30
2019-01-10T21:20:09.737Z,31.30
2019-01-10T21:22:44.515Z,31.30
2019-01-10T21:25:18.937Z,31.30
2019-01-10T21:27:53.377Z,31.30
2019-01-10T21:30:28.157Z,31.30
2019-01-10T21:33:02.274Z,31.30
2019-01-10T21:35:36.912Z,31.30
2019-01-10T21:38:11.509Z,31.30
2019-01-10T21:40:46.319Z,31.30
2019-01-10T21:43:20.434Z,31.20
2019-01-10T21:45:55.352Z,31.30
2019-01-10T21:48:35.060Z,31.20
2019-01-10T21:51:06.118Z,31.20
2019-01-10T21:53:40.870Z,31.20
2019-01-10T21:56:15.765Z,31.20
2019-01-10T21:58:51.002Z,31.20
2019-01-10T22:01:24.933Z,31.20
2019-01-10T22:03:59.429Z,31.20
2019-01-10T22:06:34.629Z,31.20
2019-01-10T22:09:10.465Z,31.20
2019-01-10T22:11:44.845Z,31.20
2019-01-10T22:14:19.233Z,31.20
2019-01-10T22:16:53.901Z,31.20
2019-01-10T22:19:28.232Z,31.20
2019-01-10T22:22:03.288Z,31.20
2019-01-10T22:24:38.087Z,31.20
2019-01-10T22:27:15.029Z,31.20
2019-01-10T22:29:49.532Z,31.10
2019-01-10T22:32:24.454Z,31.10
2019-01-10T22:34:58.864Z,31.10
2019-01-10T22:37:33.728Z,31.10
2019-01-10T22:40:08.418Z,31.10
2019-01-10T22:42:42.298Z,31.10
2019-01-10T22:45:17.239Z,31.10
2019-01-10T22:47:51.777Z,31.10
2019-01-10T22:50:26.689Z,31.10
2019-01-10T22:53:01.353Z,31.10
2019-01-10T22:55:35.750Z,31.10
2019-01-10T22:58:10.721Z,31.10
2019-01-10T23:01:43.361Z,31.10
2019-01-10T23:04:21.787Z,31.10
2019-01-10T23:06:56.021Z,31.10
2019-01-10T23:09:30.381Z,31.10
2019-01-10T23:12:06.600Z,31.00
2019-01-10T23:14:41.067Z,31.10
2019-01-10T23:17:16.085Z,31.00
2019-01-10T23:19:53.922Z,31.00
2019-01-10T23:22:28.511Z,31.00
2019-01-10T23:25:03.330Z,31.00
2019-01-10T23:27:38.854Z,31.00
2019-01-10T23:30:13.592Z,31.00
2019-01-10T23:32:48.300Z,31.00
2019-01-10T23:35:22.965Z,31.00
2019-01-10T23:37:58.718Z,31.00
2019-01-10T23:40:33.194Z,31.00
2019-01-10T23:43:07.483Z,31.00
2019-01-10T23:45:41.983Z,31.00
2019-01-10T23:48:16.624Z,31.00
2019-01-10T23:50:51.205Z,31.00
2019-01-10T23:53:25.679Z,30.90
2019-01-10T23:55:59.994Z,31.00
2019-01-10T23:58:34.180Z,31.00
